createdAt,value
2022-09-22T00:01:08.076Z,8.39
2022-09-22T00:03:38.129Z,8.38
2022-09-22T00:06:15.227Z,8.36
2022-09-22T00:08:44.786Z,8.36
2022-09-22T00:11:19.211Z,8.31
2022-09-22T00:13:51.294Z,8.27
2022-09-22T00:16:20.936Z,8.24
2022-09-22T00:18:47.507Z,8.19
2022-09-22T00:21:19.229Z,8.17
2022-09-22T00:23:47.160Z,8.16
2022-09-22T00:26:16.447Z,8.09
2022-09-22T00:28:45.212Z,8.15
2022-09-22T00:31:16.950Z,8.12
2022-09-22T00:33:46.260Z,8.10
2022-09-22T00:36:13.997Z,8.05
2022-09-22T00:38:41.147Z,8.02
2022-09-22T00:41:10.911Z,7.98
2022-09-22T00:43:38.850Z,7.97
2022-09-22T00:46:08.274Z,7.97
2022-09-22T00:48:44.276Z,7.94
2022-09-22T00:51:13.580Z,7.89
2022-09-22T00:53:40.239Z,7.86
2022-09-22T00:56:15.442Z,7.82
2022-09-22T00:58:50.613Z,7.79
2022-09-22T01:01:17.143Z,7.77
2022-09-22T01:03:43.905Z,7.77
2022-09-22T01:06:14.714Z,7.74
2022-09-22T01:08:43.581Z,7.71
2022-09-22T01:11:13.109Z,7.69
2022-09-22T01:13:39.506Z,7.67
2022-09-22T01:16:20.890Z,7.63
2022-09-22T01:19:15.447Z,7.64
2022-09-22T01:22:03.936Z,7.65
2022-09-22T01:24:56.498Z,7.63
2022-09-22T01:27:55.463Z,7.59
2022-09-22T01:30:24.495Z,7.45
2022-09-22T01:33:00.049Z,7.55
2022-09-22T01:35:37.009Z,7.50
2022-09-22T01:38:27.724Z,7.49
2022-09-22T01:41:08.205Z,7.43
2022-09-22T01:43:51.205Z,7.40
2022-09-22T01:46:32.190Z,7.37
2022-09-22T01:49:02.521Z,7.36
2022-09-22T01:51:37.278Z,7.37
2022-09-22T01:54:16.693Z,7.34
2022-09-22T01:56:49.483Z,7.34
2022-09-22T01:59:19.104Z,7.34
2022-09-22T02:01:53.909Z,7.28
2022-09-22T02:04:45.191Z,7.33
2022-09-22T02:07:28.711Z,7.29
2022-09-22T02:09:58.329Z,7.29
2022-09-22T02:12:24.813Z,7.27
2022-09-22T02:14:51.361Z,7.24
2022-09-22T02:17:17.818Z,7.21
2022-09-22T02:19:44.506Z,7.10
2022-09-22T02:22:13.842Z,7.16
2022-09-22T02:24:43.785Z,7.15
2022-09-22T02:27:20.445Z,7.15
2022-09-22T02:29:52.265Z,7.14
2022-09-22T02:32:19.821Z,7.13
2022-09-22T02:34:46.763Z,7.11
2022-09-22T02:37:25.757Z,7.10
2022-09-22T02:40:06.024Z,7.07
2022-09-22T02:42:45.207Z,6.87
2022-09-22T02:45:29.121Z,7.02
2022-09-22T02:47:58.002Z,6.97
2022-09-22T02:50:27.598Z,6.97
2022-09-22T02:53:01.238Z,6.97
2022-09-22T02:55:27.647Z,6.92
2022-09-22T02:57:54.474Z,6.90
2022-09-22T03:00:22.403Z,6.90
2022-09-22T03:02:48.962Z,6.84
2022-09-22T03:05:15.613Z,6.91
2022-09-22T03:07:42.127Z,6.92
2022-09-22T03:10:09.212Z,6.92
2022-09-22T03:12:35.717Z,6.79
2022-09-22T03:15:02.422Z,6.85
2022-09-22T03:17:28.894Z,6.86
2022-09-22T03:19:55.332Z,6.82
2022-09-22T03:22:21.774Z,6.80
2022-09-22T03:24:48.239Z,6.78
2022-09-22T03:27:14.975Z,6.77
2022-09-22T03:29:41.448Z,6.77
2022-09-22T03:32:07.883Z,6.77
2022-09-22T03:34:34.622Z,6.76
2022-09-22T03:37:01.049Z,6.73
2022-09-22T03:39:27.594Z,6.69
2022-09-22T03:41:53.997Z,6.68
2022-09-22T03:44:20.506Z,6.65
2022-09-22T03:46:46.992Z,6.63
2022-09-22T03:49:13.503Z,6.61
2022-09-22T03:51:40.321Z,6.60
2022-09-22T03:54:06.898Z,6.60
2022-09-22T03:56:33.556Z,6.59
2022-09-22T03:59:00.310Z,6.60
2022-09-22T04:01:26.816Z,6.60
2022-09-22T04:03:56.474Z,6.59
2022-09-22T04:06:23.030Z,6.61
2022-09-22T04:08:49.568Z,6.60
2022-09-22T04:11:16.075Z,6.60
2022-09-22T04:13:46.202Z,6.56
2022-09-22T04:16:13.587Z,6.56
2022-09-22T04:18:41.672Z,6.55
2022-09-22T04:21:08.653Z,6.54
2022-09-22T04:23:35.881Z,6.50
2022-09-22T04:26:03.183Z,6.49
2022-09-22T04:28:31.822Z,6.47
2022-09-22T04:30:58.937Z,6.45
2022-09-22T04:33:28.573Z,6.42
2022-09-22T04:35:55.085Z,6.30
2022-09-22T04:38:21.569Z,6.39
2022-09-22T04:40:49.598Z,6.38
2022-09-22T04:43:16.129Z,6.35
2022-09-22T04:45:45.753Z,6.34
2022-09-22T04:48:12.254Z,6.33
2022-09-22T04:50:38.709Z,6.31
2022-09-22T04:53:05.841Z,6.29
2022-09-22T04:55:32.481Z,6.28
2022-09-22T04:57:59.038Z,6.26
2022-09-22T05:00:27.915Z,6.24
2022-09-22T05:02:55.351Z,6.22
2022-09-22T05:05:24.464Z,6.21
2022-09-22T05:07:54.876Z,6.11
2022-09-22T05:10:25.110Z,6.11
2022-09-22T05:12:53.523Z,5.85
2022-09-22T05:15:22.005Z,6.19
2022-09-22T05:17:50.738Z,6.17
2022-09-22T05:20:17.869Z,6.18
2022-09-22T05:22:47.524Z,6.18
2022-09-22T05:25:16.383Z,6.22
2022-09-22T05:27:53.622Z,6.24
2022-09-22T05:30:22.523Z,6.23
2022-09-22T05:32:49.517Z,6.27
2022-09-22T05:35:18.747Z,6.26
2022-09-22T05:37:46.846Z,6.27
2022-09-22T05:40:15.028Z,6.30
2022-09-22T05:42:49.996Z,6.32
2022-09-22T05:45:18.270Z,6.35
2022-09-22T05:47:45.102Z,6.33
2022-09-22T05:50:13.471Z,6.41
2022-09-22T05:52:40.151Z,6.44
2022-09-22T05:55:07.142Z,6.52
2022-09-22T05:57:36.664Z,6.61
2022-09-22T06:00:05.857Z,6.68
2022-09-22T06:02:40.282Z,6.77
2022-09-22T06:05:07.046Z,6.82
2022-09-22T06:07:33.770Z,7.01
2022-09-22T06:10:00.293Z,7.14
2022-09-22T06:12:26.833Z,7.28
2022-09-22T06:14:53.450Z,7.38
2022-09-22T06:17:19.918Z,7.45
2022-09-22T06:19:50.102Z,7.55
2022-09-22T06:22:17.955Z,7.56
2022-09-22T06:24:44.895Z,7.90
2022-09-22T06:27:11.521Z,8.38
2022-09-22T06:29:38.004Z,8.83
2022-09-22T06:32:07.979Z,9.41
2022-09-22T06:34:38.143Z,9.96
2022-09-22T06:37:08.598Z,10.46
2022-09-22T06:39:37.758Z,10.88
2022-09-22T06:42:05.431Z,11.57
2022-09-22T06:44:33.010Z,12.37
2022-09-22T06:47:08.411Z,13.16
2022-09-22T06:49:37.192Z,13.91
2022-09-22T06:52:04.030Z,14.44
2022-09-22T06:54:30.497Z,15.14
2022-09-22T06:56:57.009Z,15.60
2022-09-22T06:59:23.500Z,15.94
2022-09-22T07:01:52.854Z,16.27
2022-09-22T07:04:20.005Z,16.42
2022-09-22T07:06:49.734Z,16.29
2022-09-22T07:09:16.579Z,15.96
2022-09-22T07:11:43.805Z,15.87
2022-09-22T07:14:10.371Z,15.79
2022-09-22T07:16:37.474Z,15.70
2022-09-22T07:19:05.549Z,15.72
2022-09-22T07:21:36.436Z,15.70
2022-09-22T07:24:04.289Z,15.66
2022-09-22T07:26:33.506Z,15.74
2022-09-22T07:29:06.090Z,15.48
2022-09-22T07:31:34.737Z,15.73
2022-09-22T07:34:01.541Z,15.93
2022-09-22T07:36:30.539Z,16.27
2022-09-22T07:39:02.967Z,16.55
2022-09-22T07:41:31.549Z,16.79
2022-09-22T07:44:23.028Z,16.75
2022-09-22T07:46:49.526Z,16.92
2022-09-22T07:49:17.632Z,17.10
2022-09-22T07:51:44.147Z,17.34
2022-09-22T07:54:10.859Z,17.09
2022-09-22T07:56:41.959Z,17.38
2022-09-22T07:59:10.933Z,17.56
2022-09-22T08:01:42.003Z,17.65
2022-09-22T08:04:12.336Z,17.73
2022-09-22T08:06:38.869Z,17.73
2022-09-22T08:09:06.937Z,17.91
2022-09-22T08:11:33.880Z,18.01
2022-09-22T08:14:10.529Z,18.28
2022-09-22T08:16:39.910Z,18.45
2022-09-22T08:19:12.467Z,18.47
2022-09-22T08:21:48.320Z,18.46
2022-09-22T08:24:21.186Z,18.73
2022-09-22T08:26:50.088Z,18.65
2022-09-22T08:29:20.296Z,19.06
2022-09-22T08:31:47.766Z,19.00
2022-09-22T08:34:16.951Z,18.95
2022-09-22T08:36:47.038Z,18.93
2022-09-22T08:39:14.624Z,19.10
2022-09-22T08:41:50.339Z,19.15
2022-09-22T08:44:26.017Z,19.18
2022-09-22T08:46:54.696Z,19.03
2022-09-22T08:49:43.504Z,19.04
2022-09-22T08:52:38.817Z,18.75
2022-09-22T08:55:11.001Z,18.87
2022-09-22T08:58:00.384Z,18.71
2022-09-22T09:00:32.566Z,18.90
2022-09-22T09:03:43.089Z,18.97
2022-09-22T09:06:18.661Z,19.18
2022-09-22T09:09:20.570Z,19.13
2022-09-22T09:12:06.755Z,19.21
2022-09-22T09:14:51.307Z,19.28
2022-09-22T09:17:39.662Z,19.35
2022-09-22T09:20:17.505Z,19.31
2022-09-22T09:22:50.724Z,19.47
2022-09-22T09:25:25.450Z,19.42
2022-09-22T09:28:00.905Z,19.56
2022-09-22T09:30:34.035Z,19.71
2022-09-22T09:33:04.653Z,19.65
2022-09-22T09:35:45.637Z,19.63
2022-09-22T09:38:15.576Z,19.41
2022-09-22T09:40:42.762Z,19.50
2022-09-22T09:43:10.487Z,19.51
2022-09-22T09:45:55.711Z,19.68
2022-09-22T09:48:43.203Z,19.59
2022-09-22T09:51:14.518Z,19.80
2022-09-22T09:53:46.025Z,19.95
2022-09-22T09:56:29.986Z,20.20
2022-09-22T09:59:20.034Z,20.22
2022-09-22T10:01:50.614Z,20.17
2022-09-22T10:04:37.677Z,20.15
2022-09-22T10:07:16.689Z,20.06
2022-09-22T10:09:44.206Z,20.05
2022-09-22T10:12:31.144Z,20.16
2022-09-22T10:14:59.457Z,20.01
2022-09-22T10:17:33.909Z,19.96
2022-09-22T10:20:31.627Z,19.57
2022-09-22T10:23:21.481Z,19.82
2022-09-22T10:25:49.565Z,20.08
2022-09-22T10:28:21.531Z,20.13
2022-09-22T10:31:05.776Z,20.08
2022-09-22T10:33:33.403Z,20.22
2022-09-22T10:36:07.839Z,20.40
2022-09-22T10:41:17.962Z,20.54
2022-09-22T10:43:50.053Z,20.60
2022-09-22T10:47:01.509Z,20.17
2022-09-22T10:49:42.722Z,20.12
2022-09-22T10:52:19.681Z,20.16
2022-09-22T10:54:49.024Z,20.43
2022-09-22T10:57:31.356Z,20.73
2022-09-22T11:00:19.255Z,20.47
2022-09-22T11:02:57.892Z,20.71
2022-09-22T11:05:53.365Z,20.74
2022-09-22T11:08:39.297Z,20.73
2022-09-22T11:11:39.970Z,20.93
2022-09-22T11:14:25.164Z,21.06
2022-09-22T11:17:23.383Z,21.10
2022-09-22T11:20:02.187Z,21.13
2022-09-22T11:22:51.050Z,21.00
2022-09-22T11:25:37.270Z,20.94
2022-09-22T11:28:03.697Z,21.10
2022-09-22T11:30:49.385Z,21.21
2022-09-22T11:33:34.397Z,21.31
2022-09-22T11:36:23.105Z,21.27
2022-09-22T11:39:00.409Z,21.08
2022-09-22T11:42:00.133Z,21.27
2022-09-22T11:44:26.575Z,21.02
2022-09-22T11:47:30.866Z,21.41
2022-09-22T11:50:20.306Z,21.35
2022-09-22T11:53:11.876Z,21.26
2022-09-22T11:55:48.964Z,21.16
2022-09-22T11:58:19.505Z,21.42
2022-09-22T12:01:07.452Z,21.46
2022-09-22T12:03:43.407Z,21.51
2022-09-22T12:06:15.194Z,21.50
2022-09-22T12:11:28.223Z,21.57
2022-09-22T12:13:56.896Z,21.47
2022-09-22T12:16:33.522Z,21.58
2022-09-22T12:19:21.649Z,21.84
2022-09-22T12:21:58.131Z,21.79
2022-09-22T12:24:24.812Z,21.66
2022-09-22T12:26:51.790Z,21.62
2022-09-22T12:29:30.129Z,21.53
2022-09-22T12:31:59.090Z,21.59
2022-09-22T12:34:34.982Z,21.81
2022-09-22T12:37:25.333Z,21.79
2022-09-22T12:39:51.890Z,21.87
2022-09-22T12:42:37.884Z,21.86
2022-09-22T12:45:13.427Z,21.61
2022-09-22T12:47:41.919Z,21.64
2022-09-22T12:50:23.960Z,21.63
2022-09-22T12:52:50.663Z,21.79
2022-09-22T12:55:29.369Z,21.63
2022-09-22T12:58:01.110Z,21.69
2022-09-22T13:00:39.565Z,21.67
2022-09-22T13:03:30.164Z,21.55
2022-09-22T13:06:15.070Z,21.39
2022-09-22T13:08:44.608Z,21.28
2022-09-22T13:11:11.758Z,21.20
2022-09-22T13:13:43.669Z,21.09
2022-09-22T13:16:16.184Z,20.93
2022-09-22T13:18:46.065Z,20.79
2022-09-22T13:21:12.474Z,20.78
2022-09-22T13:24:00.409Z,20.63
2022-09-22T13:26:38.867Z,20.37
2022-09-22T13:29:12.927Z,20.32
2022-09-22T13:31:45.210Z,20.21
2022-09-22T13:34:31.617Z,20.17
2022-09-22T13:37:07.840Z,19.93
2022-09-22T13:39:47.759Z,19.94
2022-09-22T13:42:19.287Z,19.93
2022-09-22T13:45:08.462Z,20.05
2022-09-22T13:47:35.883Z,19.83
2022-09-22T13:50:06.878Z,19.86
2022-09-22T13:52:36.079Z,19.82
2022-09-22T13:55:14.688Z,19.62
2022-09-22T13:57:42.046Z,19.75
2022-09-22T14:00:20.411Z,19.66
2022-09-22T14:02:46.957Z,19.55
2022-09-22T14:05:21.469Z,19.50
2022-09-22T14:08:10.704Z,19.41
2022-09-22T14:10:38.081Z,19.41
2022-09-22T14:13:04.574Z,19.53
2022-09-22T14:15:37.048Z,19.55
2022-09-22T14:18:16.916Z,19.50
2022-09-22T14:20:45.226Z,19.38
2022-09-22T14:23:29.924Z,19.50
2022-09-22T14:26:01.455Z,19.41
2022-09-22T14:28:41.177Z,19.27
2022-09-22T14:31:23.122Z,19.22
2022-09-22T14:33:49.869Z,19.26
2022-09-22T14:36:21.261Z,19.27
2022-09-22T14:39:04.904Z,19.18
2022-09-22T14:41:37.373Z,19.03
2022-09-22T14:44:42.734Z,18.93
2022-09-22T14:47:24.336Z,18.93
2022-09-22T14:50:05.973Z,18.77
2022-09-22T14:52:36.675Z,18.74
2022-09-22T14:55:16.987Z,18.69
2022-09-22T14:57:47.400Z,18.58
2022-09-22T15:00:34.328Z,18.43
2022-09-22T15:03:05.967Z,18.33
2022-09-22T15:05:34.209Z,18.23
2022-09-22T15:08:01.485Z,18.19
2022-09-22T15:10:32.944Z,18.18
2022-09-22T15:13:34.882Z,18.00
2022-09-22T15:16:01.664Z,18.03
2022-09-22T15:18:30.798Z,17.97
2022-09-22T15:21:13.172Z,17.89
2022-09-22T15:23:46.968Z,17.88
2022-09-22T15:26:27.238Z,17.77
2022-09-22T15:28:55.580Z,17.78
2022-09-22T15:31:26.622Z,17.76
2022-09-22T15:34:01.387Z,17.70
2022-09-22T15:36:31.964Z,17.56
2022-09-22T15:39:01.126Z,17.60
2022-09-22T15:41:27.961Z,17.58
2022-09-22T15:43:54.740Z,17.49
2022-09-22T15:46:28.473Z,17.56
2022-09-22T15:49:06.294Z,17.46
2022-09-22T15:51:33.399Z,17.41
2022-09-22T15:54:01.396Z,17.40
2022-09-22T15:56:29.598Z,17.27
2022-09-22T15:58:59.343Z,17.30
2022-09-22T16:01:28.053Z,17.29
2022-09-22T16:03:54.614Z,17.27
2022-09-22T16:06:21.623Z,17.30
2022-09-22T16:08:52.219Z,17.32
2022-09-22T16:11:30.346Z,17.26
2022-09-22T16:14:00.609Z,17.24
2022-09-22T16:16:29.412Z,17.20
2022-09-22T16:18:57.278Z,17.13
2022-09-22T16:21:26.527Z,17.04
2022-09-22T16:24:00.514Z,17.08
2022-09-22T16:26:31.337Z,17.10
2022-09-22T16:28:58.882Z,17.09
2022-09-22T16:31:25.767Z,17.07
2022-09-22T16:33:54.541Z,17.04
2022-09-22T16:36:21.906Z,16.95
2022-09-22T16:38:51.204Z,16.91
2022-09-22T16:41:21.989Z,16.88
2022-09-22T16:43:48.758Z,16.79
2022-09-22T16:46:31.211Z,16.72
2022-09-22T16:49:05.935Z,16.69
2022-09-22T16:51:35.473Z,16.66
2022-09-22T16:54:03.354Z,16.51
2022-09-22T16:56:32.759Z,16.54
2022-09-22T16:59:03.141Z,16.45
2022-09-22T17:01:31.372Z,16.46
2022-09-22T17:03:59.030Z,16.38
2022-09-22T17:06:26.478Z,16.37
2022-09-22T17:08:55.002Z,16.32
2022-09-22T17:11:29.671Z,16.25
2022-09-22T17:14:00.861Z,16.16
2022-09-22T17:16:34.103Z,16.07
2022-09-22T17:19:05.714Z,16.00
2022-09-22T17:21:36.563Z,15.92
2022-09-22T17:24:05.735Z,15.85
2022-09-22T17:26:49.961Z,15.73
2022-09-22T17:29:24.926Z,15.66
2022-09-22T17:31:56.449Z,15.59
2022-09-22T17:34:24.676Z,15.51
2022-09-22T17:36:52.434Z,15.46
2022-09-22T17:39:18.918Z,15.39
2022-09-22T17:41:47.057Z,15.34
2022-09-22T17:44:20.865Z,15.27
2022-09-22T17:47:10.898Z,15.21
2022-09-22T17:49:57.043Z,15.11
2022-09-22T17:52:29.691Z,15.01
2022-09-22T17:55:07.059Z,14.95
2022-09-22T17:57:41.329Z,14.86
2022-09-22T18:00:21.829Z,14.72
2022-09-22T18:02:50.001Z,14.66
2022-09-22T18:05:19.662Z,14.67
2022-09-22T18:07:47.791Z,14.56
2022-09-22T18:10:17.581Z,14.40
2022-09-22T18:12:44.308Z,14.43
2022-09-22T18:15:15.024Z,14.36
2022-09-22T18:17:45.614Z,14.26
2022-09-22T18:20:14.534Z,14.20
2022-09-22T18:22:41.802Z,14.13
2022-09-22T18:25:10.415Z,13.97
2022-09-22T18:27:38.090Z,14.04
2022-09-22T18:30:05.123Z,13.99
2022-09-22T18:32:32.988Z,13.96
2022-09-22T18:34:59.641Z,13.91
2022-09-22T18:37:26.925Z,13.86
2022-09-22T18:39:53.908Z,13.72
2022-09-22T18:42:24.128Z,13.73
2022-09-22T18:44:52.581Z,13.68
2022-09-22T18:47:21.475Z,13.63
2022-09-22T18:49:51.267Z,13.58
2022-09-22T18:52:24.314Z,13.56
2022-09-22T18:54:53.782Z,13.48
2022-09-22T18:57:28.651Z,13.42
2022-09-22T18:59:57.735Z,13.35
2022-09-22T19:02:24.840Z,13.30
2022-09-22T19:04:51.713Z,13.26
2022-09-22T19:07:41.526Z,13.22
2022-09-22T19:10:12.226Z,13.19
2022-09-22T19:12:42.716Z,13.10
2022-09-22T19:15:16.458Z,13.03
2022-09-22T19:17:44.733Z,12.96
2022-09-22T19:20:17.357Z,12.87
2022-09-22T19:22:44.445Z,12.78
2022-09-22T19:25:11.205Z,12.65
2022-09-22T19:27:39.730Z,12.65
2022-09-22T19:30:07.362Z,12.56
2022-09-22T19:32:33.954Z,12.46
2022-09-22T19:35:00.562Z,12.38
2022-09-22T19:37:29.109Z,12.37
2022-09-22T19:39:55.753Z,12.31
2022-09-22T19:42:22.427Z,12.25
2022-09-22T19:44:48.921Z,12.18
2022-09-22T19:47:15.958Z,12.12
2022-09-22T19:49:42.593Z,12.05
2022-09-22T19:52:09.340Z,11.97
2022-09-22T19:54:35.874Z,11.90
2022-09-22T19:57:02.493Z,11.84
2022-09-22T19:59:29.554Z,11.79
2022-09-22T20:01:56.161Z,11.73
2022-09-22T20:04:23.389Z,11.67
2022-09-22T20:06:53.460Z,11.61
2022-09-22T20:09:20.101Z,11.56
2022-09-22T20:11:49.733Z,11.43
2022-09-22T20:14:23.804Z,11.43
2022-09-22T20:16:52.098Z,11.37
2022-09-22T20:19:19.319Z,11.31
2022-09-22T20:21:46.478Z,11.23
2022-09-22T20:24:15.857Z,11.16
2022-09-22T20:26:43.396Z,11.10
2022-09-22T20:29:10.948Z,11.04
2022-09-22T20:31:37.549Z,10.98
2022-09-22T20:34:05.711Z,10.94
2022-09-22T20:36:37.097Z,10.89
2022-09-22T20:39:04.554Z,10.84
2022-09-22T20:41:32.581Z,10.80
2022-09-22T20:43:59.277Z,10.77
2022-09-22T20:46:25.883Z,10.73
2022-09-22T20:48:55.409Z,10.69
2022-09-22T20:51:25.303Z,10.62
2022-09-22T20:53:51.806Z,10.58
2022-09-22T20:56:18.293Z,10.56
2022-09-22T20:58:46.209Z,10.53
2022-09-22T21:01:15.260Z,10.51
2022-09-22T21:03:42.084Z,10.47
2022-09-22T21:06:11.219Z,10.43
2022-09-22T21:08:57.975Z,10.36
2022-09-22T21:11:25.035Z,10.36
2022-09-22T21:13:53.952Z,10.27
2022-09-22T21:16:20.421Z,10.31
2022-09-22T21:18:51.672Z,10.27
2022-09-22T21:21:20.487Z,10.22
2022-09-22T21:23:50.421Z,10.11
2022-09-22T21:26:18.449Z,10.16
2022-09-22T21:28:48.054Z,10.11
2022-09-22T21:31:14.752Z,10.06
2022-09-22T21:33:41.769Z,10.04
2022-09-22T21:36:15.413Z,10.01
2022-09-22T21:38:42.980Z,9.95
2022-09-22T21:41:11.429Z,9.97
2022-09-22T21:43:38.430Z,9.94
2022-09-22T21:46:13.418Z,9.93
2022-09-22T21:48:40.197Z,9.90
2022-09-22T21:51:14.645Z,9.88
2022-09-22T21:53:44.086Z,9.87
2022-09-22T21:56:12.700Z,9.84
2022-09-22T21:58:41.771Z,9.80
2022-09-22T22:01:10.581Z,9.80
2022-09-22T22:03:42.118Z,9.76
2022-09-22T22:06:15.911Z,9.72
2022-09-22T22:08:47.307Z,9.65
2022-09-22T22:11:22.738Z,9.64
2022-09-22T22:13:52.181Z,9.61
2022-09-22T22:16:25.214Z,9.60
2022-09-22T22:18:52.167Z,9.57
2022-09-22T22:21:22.671Z,9.54
2022-09-22T22:23:54.639Z,9.50
2022-09-22T22:26:23.974Z,9.44
2022-09-22T22:28:53.174Z,9.42
2022-09-22T22:31:22.860Z,9.41
2022-09-22T22:33:49.982Z,9.38
2022-09-22T22:36:18.533Z,9.35
2022-09-22T22:38:45.402Z,9.33
2022-09-22T22:41:14.753Z,9.31
2022-09-22T22:43:42.441Z,9.29
2022-09-22T22:46:10.509Z,9.27
2022-09-22T22:48:37.603Z,9.28
2022-09-22T22:51:09.193Z,9.25
2022-09-22T22:53:36.035Z,8.73
2022-09-22T22:56:05.640Z,9.18
2022-09-22T22:58:35.374Z,9.16
2022-09-22T23:01:15.206Z,9.11
2022-09-22T23:03:44.260Z,9.06
2022-09-22T23:06:16.126Z,9.01
2022-09-22T23:08:43.833Z,8.99
2022-09-22T23:11:16.885Z,8.96
2022-09-22T23:13:51.847Z,8.90
2022-09-22T23:16:24.354Z,8.86
2022-09-22T23:18:52.582Z,8.79
2022-09-22T23:21:21.117Z,8.81
2022-09-22T23:23:49.460Z,8.77
2022-09-22T23:26:17.615Z,8.72
2022-09-22T23:28:44.459Z,8.71
2022-09-22T23:31:14.170Z,8.67
2022-09-22T23:33:43.138Z,8.62
2022-09-22T23:36:13.610Z,8.57
2022-09-22T23:38:40.613Z,8.54
2022-09-22T23:41:08.738Z,8.50
2022-09-22T23:43:35.187Z,8.48
2022-09-22T23:46:04.477Z,8.42
2022-09-22T23:48:32.206Z,8.42
2022-09-22T23:50:59.252Z,8.39
2022-09-22T23:53:29.654Z,8.38
2022-09-22T23:55:56.179Z,8.36
2022-09-22T23:58:22.682Z,8.34
